Nearby METAR Reports

 

KIAG - Niagara Falls, New York, USA
Distance from station: W 12mi, 20km
Updated: 10/20/2017 9:53am
Clear
Clear
 Wind from SW
Wind: SW 6 mph , 9 km/h
Temperature: 57°F , 14°C
Dew Point: 43°F , 6°C
Humidity: 59%
Barometer: 1025.1 hPa
Clouds: Clear
Visibility: 10 miles , 16 km
2017/10/20 13:53 KIAG 201353Z 23005KT 10SM CLR 14/06 A3027 RMK AO2 SLP254 T01390061 $
KBUF - Buffalo/Cheektow, New York, USA
Distance from station: S 13mi, 21km
Updated: 10/20/2017 9:54am
Few Clouds
Few Clouds
 Wind from SSW
Wind: SSW 6 mph , 9 km/h
Temperature: 55°F , 13°C
Dew Point: 43°F , 6°C
Humidity: 63%
Barometer: 1025.4 hPa
Clouds: Few Clouds
Visibility: 10 miles , 16 km
Cloud details: Few Clouds 26000 ft
2017/10/20 13:54 KBUF 201354Z 21005KT 10SM FEW260 13/06 A3028 RMK AO2 SLP255 T01280056
 
KROC - Rochester, New York, USA
Distance from station: E 51mi, 82km
Updated: 10/20/2017 9:54am
Few Clouds
Few Clouds
 Wind from W
Wind: W 8 mph , 13 km/h
Temperature: 57°F , 14°C
Dew Point: 43°F , 6°C
Humidity: 59%
Barometer: 1025.1 hPa
Clouds: Few Clouds
Visibility: 10 miles , 16 km
Cloud details: Few Clouds 25000 ft
2017/10/20 13:54 KROC 201354Z 27007KT 10SM FEW250 14/06 A3027 RMK AO2 SLP254 T01390056
CYSN - St. Catharines A, Ontario, Canada
Distance from station: WNW 25mi, 40km
Updated: 10/20/2017 9:00am
Few Clouds
Few Clouds
 Wind from SW
Wind: SW 8 mph , 13 km/h
Temperature: 52°F , 11°C
Dew Point: 41°F , 5°C
Humidity: 67%
Barometer: 1024.4 hPa
Clouds: Few Clouds
Visibility: 15 miles , 24 km
Cloud details: Few Clouds 25000 ft
2017/10/20 13:00 CYSN 201300Z 23007KT 15SM FEW250 11/05 A3025 RMK CI1 CI TR SLP247
 
KOLE - Olean, New York, USA
Distance from station: SSE 63mi, 102km
Updated: 10/20/2017 9:55am
Clear
Clear
 Wind from WNW
Wind: WNW 3 mph , 6 km/h
Temperature: 50°F , 10°C
Dew Point: 36°F , 2°C
Humidity: 58%
Barometer: 1025.7 hPa
Clouds: Clear
Visibility: 10 miles , 16 km
2017/10/20 13:55 KOLE 201355Z AUTO 29003KT 10SM CLR 10/02 A3029 RMK AO2
KJHW - Jamestown, New York, USA
Distance from station: SSW 74mi, 119km
Updated: 10/20/2017 9:56am
Clear
Clear
 Wind from calm
Wind: Calm
Temperature: 54°F , 12°C
Dew Point: 46°F , 8°C
Humidity: 77%
Barometer: 1026.4 hPa
Clouds: Clear
Visibility: 10 miles , 16 km
2017/10/20 13:56 KJHW 201356Z AUTO 00000KT 10SM CLR 12/08 A3031 RMK AO2 SLP270 T01220078
 
CWWZ - Port Weller (mar, Ontario, Canada
Distance from station: WNW 28mi, 45km
Updated: 10/20/2017 9:00am

 Wind from SSW
Wind: SSW 7 mph , 11 km/h
Temperature: 55°F , 13°C
Dew Point: 41°F , 5°C
Humidity: 59%
2017/10/20 13:00 CWWZ 201300Z AUTO 21006KT 13/05 RMK AO1 SLP247 T01260049 53023
CWPC - Port Colborne(Au, Ontario, Canada
Distance from station: WSW 33mi, 53km
Updated: 10/20/2017 9:00am

 Wind from NW
Wind: NW 6 mph , 9 km/h
Temperature: 55°F , 13°C
Dew Point: 37°F , 3°C
Humidity: 51%
2017/10/20 13:00 CWPC 201300Z AUTO 31005KT 13/03 RMK AO1 SLP255 T01260034 52023
 
CXVN - Vineland (au8), Ontario, Canada
Distance from station: W 36mi, 58km
Updated: 10/20/2017 9:00am

 Wind from SW
Wind: SW 7 mph , 11 km/h
Temperature: 52°F , 11°C
Dew Point: 41°F , 5°C
Humidity: 67%
2017/10/20 13:00 CXVN 201300Z AUTO 22006KT 11/05 RMK AO1 SLP241 T01100048 53022
CYTZ - Toronto Il Vor, Ontario, Canada
Distance from station: NW 50mi, 81km
Updated: 10/20/2017 9:00am
Clear
Clear
 Wind from WNW
Wind: WNW 6 mph , 9 km/h
Temperature: 54°F , 12°C
Dew Point: 39°F , 4°C
Humidity: 58%
Barometer: 1024 hPa
Clouds: Clear
Visibility: 9 miles , 14 km
2017/10/20 13:00 CYTZ 201300Z AUTO 30005KT 9SM CLR 12/04 A3024 RMK SLP243
 
CXTO - Toronto City, Ontario, Canada
Distance from station: NW 52mi, 84km
Updated: 10/20/2017 9:00am

 
Temperature: 52°F , 11°C
Dew Point: 39°F , 4°C
Humidity: 62%
2017/10/20 13:00 CXTO 201300Z AUTO 11/04 RMK AO1 SLP242 T01120035 53023
KDKK - Dunkirk, New York, USA
Distance from station: SW 52mi, 84km
Updated: 10/20/2017 9:53am
Clear
Clear
 Wind from SSW
Wind: SSW 5 mph , 7 km/h
Temperature: 57°F , 14°C
Dew Point: 46°F , 8°C
Humidity: 67%
Barometer: 1026.1 hPa
Clouds: Clear
Visibility: 10 miles , 16 km
2017/10/20 13:53 KDKK 201353Z AUTO 21004KT 10SM CLR 14/08 A3030 RMK AO2 SLP260 T01390083
 
CYOO - Oshawa, Ontario, Canada
Distance from station: N 56mi, 90km
Updated: 10/20/2017 9:00am
Clear
Clear
 Wind from calm
Wind: Calm
Temperature: 50°F , 10°C
Dew Point: 41°F , 5°C
Humidity: 71%
Barometer: 1023.7 hPa
Clouds: Clear
Visibility: 9 miles , 14 km
2017/10/20 13:00 CYOO 201300Z AUTO 00000KT 9SM CLR 10/05 A3023 RMK SLP239
CWWB - Burlington Piers, Ontario, Canada
Distance from station: WNW 56mi, 91km
Updated: 10/20/2017 9:00am

 Wind from SW
Wind: SW 7 mph , 11 km/h
Temperature: 54°F , 12°C
Dew Point: 41°F , 5°C
Humidity: 63%
2017/10/20 13:00 CWWB 201300Z AUTO 22006KT 12/05 RMK AO1 SLP248 T01150052 53021
 
CYYZ - Toronto/Pearson, Ontario, Canada
Distance from station: NW 60mi, 96km
Updated: 10/20/2017 9:00am
Few Clouds
Few Clouds
 Wind from varies
Wind: varies 2 mph , 4 km/h
Temperature: 54°F , 12°C
Dew Point: 41°F , 5°C
Humidity: 63%
Barometer: 1024 hPa
Clouds: Few Clouds
Visibility: 15 miles , 24 km
Cloud details: Few Clouds 23000 ft
2017/10/20 13:00 CYYZ 201300Z VRB02KT 15SM FEW230 12/05 A3024 RMK CI1 CI TR SLP245
CYKZ - Toronto Buttonvi, Ontario, Canada
Distance from station: NW 62mi, 99km
Updated: 10/20/2017 9:00am
Few Clouds
Few Clouds
 Wind from SW
Wind: SW 3 mph , 6 km/h
Temperature: 54°F , 12°C
Dew Point: 39°F , 4°C
Humidity: 58%
Barometer: 1024 hPa
Clouds: Few Clouds
Visibility: 15 miles , 24 km
Cloud details: Few Clouds 24000 ft
2017/10/20 13:00 CYKZ 201300Z 22003KT 15SM FEW240 12/04 A3024 RMK CI1 CI TR SLP243
 
CXHM - Hamilton Rbg Cs, Ontario, Canada
Distance from station: W 62mi, 100km
Updated: 10/20/2017 9:00am

 Wind from WSW
Wind: WSW 1 mph , 2 km/h
Temperature: 50°F , 10°C
Dew Point: 43°F , 6°C
Humidity: 76%
2017/10/20 13:00 CXHM 201300Z AUTO 24001KT 10/06 RMK AO1 SLP243 T00990061 53019
KDSV - Dansville, New York, USA
Distance from station: SE 62mi, 100km
Updated: 10/20/2017 9:54am
Clear
Clear
 Wind from SSE
Wind: SSE 3 mph , 6 km/h
Temperature: 54°F , 12°C
Dew Point: 45°F , 7°C
Humidity: 72%
Barometer: 1025.7 hPa
Clouds: Clear
Visibility: 10 miles , 16 km
2017/10/20 13:54 KDSV 201354Z AUTO 15003KT 10SM CLR 12/07 A3029 RMK AO2 SLP267 T01170067
 
CYHM - Hamilton Airport, Ontario, Canada
Distance from station: W 63mi, 101km
Updated: 10/20/2017 9:00am
Few Clouds
Few Clouds
 Wind from WSW
Wind: WSW 7 mph , 11 km/h
Temperature: 46°F , 8°C
Wind Chill: 42°F , 6°C
Dew Point: 41°F , 5°C
Humidity: 82%
Barometer: 1024.7 hPa
Clouds: Few Clouds
Visibility: 15 miles , 24 km
Cloud details: Few Clouds 24000 ft
2017/10/20 13:00 CYHM 201300Z 25006KT 15SM FEW240 08/05 A3026 RMK CI1 CI TR SLP253
CWNC - Cobourg (mars), Ontario, Canada
Distance from station: NNE 63mi, 102km
Updated: 10/20/2017 9:00am

 Wind from W
Wind: W 1 mph , 2 km/h
Temperature: 48°F , 9°C
Dew Point: 41°F , 5°C
Humidity: 76%
2017/10/20 13:00 CWNC 201300Z AUTO 26001KT 09/05 RMK AO1 SLP232 T00940050 53026